createdAt,value
2023-05-14T00:08:39.721Z,93
2023-05-14T00:23:39.704Z,92
2023-05-14T00:28:39.718Z,92
2023-05-14T00:38:39.701Z,93
2023-05-14T00:48:39.707Z,94
2023-05-14T00:53:39.709Z,94
2023-05-14T01:03:39.852Z,94
2023-05-14T01:13:39.696Z,95
2023-05-14T01:18:39.764Z,95
2023-05-14T01:28:39.679Z,95
2023-05-14T01:33:39.706Z,95
2023-05-14T01:43:39.697Z,95
2023-05-14T01:58:39.725Z,95
2023-05-14T02:03:39.702Z,95
2023-05-14T02:13:39.697Z,96
2023-05-14T02:18:39.797Z,96
2023-05-14T02:28:39.714Z,96
2023-05-14T02:33:39.713Z,96
2023-05-14T02:43:39.697Z,96
2023-05-14T02:53:39.683Z,96
2023-05-14T02:58:39.683Z,97
2023-05-14T03:03:39.694Z,97
2023-05-14T03:08:39.707Z,97
2023-05-14T03:18:39.732Z,97
2023-05-14T03:28:39.696Z,96
2023-05-14T03:43:39.704Z,97
2023-05-14T03:53:39.683Z,97
2023-05-14T03:58:39.725Z,97
2023-05-14T04:03:39.833Z,97
2023-05-14T04:08:39.705Z,97
2023-05-14T04:18:39.732Z,97
2023-05-14T04:28:39.700Z,96
2023-05-14T04:33:39.710Z,96
2023-05-14T04:43:39.682Z,96
2023-05-14T04:48:39.719Z,96
2023-05-14T04:53:39.837Z,96
2023-05-14T05:03:39.728Z,92
2023-05-14T05:08:39.755Z,88
2023-05-14T05:18:39.744Z,83
2023-05-14T05:23:39.686Z,82
2023-05-14T05:28:39.701Z,81
2023-05-14T05:38:39.718Z,79
2023-05-14T05:48:39.707Z,75
2023-05-14T05:58:39.710Z,75
2023-05-14T06:03:39.707Z,75
2023-05-14T06:13:39.708Z,72
2023-05-14T06:23:39.706Z,74
2023-05-14T06:33:39.694Z,74
2023-05-14T06:38:39.676Z,72
2023-05-14T06:43:39.686Z,72
2023-05-14T06:53:39.703Z,69
2023-05-14T06:58:39.679Z,72
2023-05-14T07:08:39.693Z,74
2023-05-14T07:13:39.692Z,73
2023-05-14T07:23:39.702Z,69
2023-05-14T07:28:39.699Z,66
2023-05-14T07:43:39.700Z,68
2023-05-14T07:53:39.694Z,62
2023-05-14T08:03:39.831Z,63
2023-05-14T08:13:39.713Z,66
2023-05-14T08:23:39.714Z,68
2023-05-14T08:33:39.697Z,66
2023-05-14T08:38:39.708Z,63
2023-05-14T08:43:39.698Z,59
2023-05-14T08:48:47.050Z,60
2023-05-14T08:58:39.683Z,56
2023-05-14T09:03:39.720Z,58
2023-05-14T09:08:39.698Z,58
2023-05-14T09:18:39.728Z,57
2023-05-14T09:23:39.700Z,58
2023-05-14T09:33:36.543Z,62
2023-05-14T09:38:39.694Z,58
2023-05-14T09:43:39.705Z,55
2023-05-14T09:53:39.693Z,59
2023-05-14T09:58:39.704Z,57
2023-05-14T10:08:39.682Z,60
2023-05-14T10:18:39.704Z,56
2023-05-14T10:28:39.679Z,54
2023-05-14T10:33:39.697Z,51
2023-05-14T10:40:39.369Z,58
2023-05-14T10:48:39.688Z,51
2023-05-14T10:53:39.707Z,49
2023-05-14T11:03:39.717Z,55
2023-05-14T11:13:39.697Z,53
2023-05-14T11:18:39.702Z,55
2023-05-14T11:28:39.697Z,58
2023-05-14T11:38:39.694Z,55
2023-05-14T11:43:39.702Z,56
2023-05-14T11:53:39.695Z,59
2023-05-14T12:03:39.783Z,62
2023-05-14T12:13:39.689Z,68
2023-05-14T12:18:39.777Z,67
2023-05-14T12:28:39.680Z,59
2023-05-14T12:33:39.697Z,59
2023-05-14T12:43:39.698Z,51
2023-05-14T12:53:39.689Z,46
2023-05-14T12:58:39.702Z,48
2023-05-14T13:08:41.447Z,52
2023-05-14T13:18:39.704Z,51
2023-05-14T13:28:39.682Z,44
2023-05-14T13:33:39.688Z,47
2023-05-14T13:43:39.697Z,40
2023-05-14T13:53:39.724Z,40
2023-05-14T14:03:39.683Z,43
2023-05-14T14:08:39.697Z,42
2023-05-14T14:18:39.728Z,40
2023-05-14T14:23:39.694Z,39
2023-05-14T14:28:39.706Z,40
2023-05-14T14:38:39.695Z,43
2023-05-14T14:48:39.702Z,44
2023-05-14T14:58:39.688Z,41
2023-05-14T15:03:39.857Z,41
2023-05-14T15:13:39.729Z,41
2023-05-14T15:23:39.707Z,43
2023-05-14T15:33:39.698Z,46
2023-05-14T15:38:39.699Z,42
2023-05-14T15:48:39.703Z,45
2023-05-14T15:58:39.700Z,46
2023-05-14T16:08:39.706Z,43
2023-05-14T16:13:39.695Z,42
2023-05-14T16:23:39.690Z,44
2023-05-14T16:28:39.717Z,45
2023-05-14T16:38:52.387Z,48
2023-05-14T16:48:39.711Z,48
2023-05-14T16:53:39.684Z,48
2023-05-14T17:03:39.700Z,48
2023-05-14T17:13:39.698Z,50
2023-05-14T17:23:39.668Z,51
2023-05-14T17:28:39.717Z,50
2023-05-14T17:38:39.680Z,51
2023-05-14T17:48:39.669Z,51
2023-05-14T17:53:39.698Z,53
2023-05-14T18:03:39.754Z,53
2023-05-14T18:13:39.696Z,56
2023-05-14T18:23:39.699Z,58
2023-05-14T18:28:39.709Z,59
2023-05-14T18:38:39.680Z,61
2023-05-14T18:43:39.701Z,60
2023-05-14T18:48:39.683Z,60
2023-05-14T18:53:39.690Z,60
2023-05-14T18:58:39.768Z,60
2023-05-14T19:08:39.701Z,60
2023-05-14T19:18:39.830Z,62
2023-05-14T19:28:39.710Z,65
2023-05-14T19:38:39.684Z,68
2023-05-14T19:43:39.720Z,69
2023-05-14T19:53:39.683Z,72
2023-05-14T19:58:39.711Z,72
2023-05-14T20:08:39.684Z,74
2023-05-14T20:13:39.706Z,75
2023-05-14T20:23:39.699Z,76
2023-05-14T20:33:39.695Z,77
2023-05-14T20:38:39.699Z,78
2023-05-14T20:43:39.704Z,78
2023-05-14T20:53:39.717Z,78
2023-05-14T20:58:39.727Z,78
2023-05-14T21:08:39.697Z,79
2023-05-14T21:18:39.745Z,79
2023-05-14T21:23:39.699Z,80
2023-05-14T21:33:39.722Z,80
2023-05-14T21:43:39.685Z,81
2023-05-14T21:53:39.724Z,82
2023-05-14T22:03:39.702Z,83
2023-05-14T22:23:39.718Z,84
2023-05-14T22:33:39.702Z,87
2023-05-14T22:43:39.701Z,88
2023-05-14T22:53:39.741Z,86
2023-05-14T22:58:39.695Z,85
2023-05-14T23:08:39.707Z,84
2023-05-14T23:18:39.962Z,83
2023-05-14T23:28:39.681Z,83
2023-05-14T23:33:39.720Z,82
2023-05-14T23:43:39.742Z,82
2023-05-14T23:53:39.693Z,84
